地図

経路データ

SID SEASON NUMBER BASIN SUBBASIN NAME ISO_TIME NATURE LAT LON WMO_WIND WMO_PRES WMO_AGENCY TRACK_TYPE DIST2LAND LANDFALL IFLAG USA_AGENCY USA_ATCF_ID USA_LAT USA_LON USA_RECORD USA_STATUS USA_WIND USA_PRES USA_SSHS USA_R34_NE USA_R34_SE USA_R34_SW USA_R34_NW USA_R50_NE USA_R50_SE USA_R50_SW USA_R50_NW USA_R64_NE USA_R64_SE USA_R64_SW USA_R64_NW USA_POCI USA_ROCI USA_RMW USA_EYE TOKYO_LAT TOKYO_LON TOKYO_GRADE TOKYO_WIND TOKYO_PRES TOKYO_R50_DIR TOKYO_R50_LONG TOKYO_R50_SHORT TOKYO_R30_DIR TOKYO_R30_LONG TOKYO_R30_SHORT TOKYO_LAND CMA_LAT CMA_LON CMA_CAT CMA_WIND CMA_PRES HKO_LAT HKO_LON HKO_CAT HKO_WIND HKO_PRES NEWDELHI_LAT NEWDELHI_LON NEWDELHI_GRADE NEWDELHI_WIND NEWDELHI_PRES NEWDELHI_CI NEWDELHI_DP NEWDELHI_POCI REUNION_LAT REUNION_LON REUNION_TYPE REUNION_WIND REUNION_PRES REUNION_TNUM REUNION_CI REUNION_RMW REUNION_R34_NE REUNION_R34_SE REUNION_R34_SW REUNION_R34_NW REUNION_R50_NE REUNION_R50_SE REUNION_R50_SW REUNION_R50_NW REUNION_R64_NE REUNION_R64_SE REUNION_R64_SW REUNION_R64_NW BOM_LAT BOM_LON BOM_TYPE BOM_WIND BOM_PRES BOM_TNUM BOM_CI BOM_RMW BOM_R34_NE BOM_R34_SE BOM_R34_SW BOM_R34_NW BOM_R50_NE BOM_R50_SE BOM_R50_SW BOM_R50_NW BOM_R64_NE BOM_R64_SE BOM_R64_SW BOM_R64_NW BOM_ROCI BOM_POCI BOM_EYE BOM_POS_METHOD BOM_PRES_METHOD NADI_LAT NADI_LON NADI_CAT NADI_WIND NADI_PRES WELLINGTON_LAT WELLINGTON_LON WELLINGTON_WIND WELLINGTON_PRES DS824_LAT DS824_LON DS824_STAGE DS824_WIND DS824_PRES TD9636_LAT TD9636_LON TD9636_STAGE TD9636_WIND TD9636_PRES TD9635_LAT TD9635_LON TD9635_WIND TD9635_PRES TD9635_ROCI NEUMANN_LAT NEUMANN_LON NEUMANN_CLASS NEUMANN_WIND NEUMANN_PRES MLC_LAT MLC_LON MLC_CLASS MLC_WIND MLC_PRES USA_GUST BOM_GUST BOM_GUST_PER REUNION_GUST REUNION_GUST_PER USA_SEAHGT USA_SEARAD_NE USA_SEARAD_SE USA_SEARAD_SW USA_SEARAD_NW STORM_SPEED STORM_DIR
1996021S16152 1996 5 SP EA CELESTE 1996-01-21 00:00:00 TS -15.7000 151.750 main 580 563 O___________O_ jtwc_sh SH091996 -15.7000 151.700 15 -1 -15.7000 151.800 TC 15 4 302
1996021S16152 1996 5 SP EA CELESTE 1996-01-21 03:00:00 TS -15.5900 151.570 main 563 548 P___________P_ SH091996 -15.5900 151.542 15 -1 -15.5900 151.597 TC 15 4 301
1996021S16152 1996 5 SP EA CELESTE 1996-01-21 06:00:00 TS -15.5000 151.400 main 548 535 O___________O_ jtwc_sh SH091996 -15.5000 151.400 15 -1 -15.5000 151.400 TC 15 3 296
1996021S16152 1996 5 SP EA CELESTE 1996-01-21 09:00:00 TS -15.4425 151.253 main 535 533 P___________P_ SH091996 -15.4425 151.285 15 -1 -15.4425 151.220 TC 15 3 293
1996021S16152 1996 5 SP EA CELESTE 1996-01-21 12:00:00 TS -15.4000 151.150 main 533 520 O___________O_ jtwc_sh SH091996 -15.4000 151.200 15 -1 -15.4000 151.100 TC 15 2 309
1996021S16152 1996 5 SP EA CELESTE 1996-01-21 15:00:00 TS -15.3425 151.121 main 520 520 P___________P_ SH091996 -15.3425 151.150 15 -1 -15.3425 151.093 TC 15 1 343
1996021S16152 1996 5 SP EA CELESTE 1996-01-21 18:00:00 TS -15.3000 151.100 main 520 519 O___________O_ jtwc_sh SH091996 -15.3000 151.100 15 -1 -15.3000 151.100 TC 15 1 292
1996021S16152 1996 5 SP EA CELESTE 1996-01-21 21:00:00 TS -15.3000 151.011 main 519 517 P___________P_ SH091996 -15.3000 151.008 15 -1 -15.3000 151.015 TC 15 2 270
1996021S16152 1996 5 SP EA CELESTE 1996-01-22 00:00:00 TS -15.3000 150.900 main 517 516 O___________O_ jtwc_sh SH091996 -15.3000 150.900 15 -1 -15.3000 150.900 TC 15 2 283
1996021S16152 1996 5 SP EA CELESTE 1996-01-22 03:00:00 TS -15.2500 150.792 main 505 504 P___________P_ SH091996 -15.2500 150.792 15 -1 -15.2500 150.792 TC 15 2 297
1996021S16152 1996 5 SP EA CELESTE 1996-01-22 06:00:00 TS -15.2000 150.700 main 504 504 O___________O_ jtwc_sh SH091996 -15.2000 150.700 15 -1 -15.2000 150.700 TC 15 2 286
1996021S16152 1996 5 SP EA CELESTE 1996-01-22 09:00:00 TS -15.2075 150.635 main 504 504 P___________P_ SH091996 -15.2075 150.635 15 -1 -15.2075 150.635 TC 15 1 270
1996021S16152 1996 5 SP EA CELESTE 1996-01-22 12:00:00 TS -15.2000 150.600 main 504 493 O___________O_ jtwc_sh SH091996 -15.2000 150.600 15 -1 -15.2000 150.600 TC 15 1 0
1996021S16152 1996 5 SP EA CELESTE 1996-01-22 15:00:00 TS -15.1075 150.608 main 493 481 P___________P_ SH091996 -15.1075 150.608 15 -1 -15.1075 150.608 TC 15 2 8
1996021S16152 1996 5 SP EA CELESTE 1996-01-22 18:00:00 TS -15.0000 150.600 main 481 481 O___________O_ jtwc_sh SH091996 -15.0000 150.600 15 -1 -15.0000 150.600 TC 15 2 328
1996021S16152 1996 5 SP EA CELESTE 1996-01-22 21:00:00 TS -14.9500 150.508 main 481 470 P___________P_ SH091996 -14.9500 150.508 17 -1 -14.9500 150.508 TC 17 2 297
1996021S16152 1996 5 SP EA CELESTE 1996-01-23 00:00:00 TS -14.9000 150.400 main 470 459 O___________O_ jtwc_sh SH091996 -14.9000 150.400 20 -1 -14.9000 150.400 TC 20 2 315
1996021S16152 1996 5 SP EA CELESTE 1996-01-23 03:00:00 TS -14.8075 150.358 main 459 447 P___________P_ SH091996 -14.8075 150.358 20 -1 -14.8075 150.358 TC 20 2 333
1996021S16152 1996 5 SP EA CELESTE 1996-01-23 06:00:00 TS -14.7000 150.300 main 447 436 O___________O_ jtwc_sh SH091996 -14.7000 150.300 20 -1 -14.7000 150.300 TC 20 3 320
1996021S16152 1996 5 SP EA CELESTE 1996-01-23 09:00:00 TS -14.5850 150.165 main 436 425 P___________P_ SH091996 -14.5850 150.165 20 -1 -14.5850 150.165 TC 20 4 304
1996021S16152 1996 5 SP EA CELESTE 1996-01-23 12:00:00 TS -14.5000 150.000 main 426 426 O___________O_ jtwc_sh SH091996 -14.5000 150.000 20 -1 -14.5000 150.000 TC 20 3 291
1996021S16152 1996 5 SP EA CELESTE 1996-01-23 15:00:00 TS -14.4625 149.835 main 427 427 P___________P_ SH091996 -14.4625 149.835 22 -1 -14.4625 149.835 TC 22 3 270
1996021S16152 1996 5 SP EA CELESTE 1996-01-23 18:00:00 TS -14.5000 149.700 main 428 428 O___________O_ jtwc_sh SH091996 -14.5000 149.700 25 -1 -14.5000 149.700 TC 25 3 231
1996021S16152 1996 5 SP EA CELESTE 1996-01-23 21:00:00 TS -14.6200 149.635 main 441 441 P___________P_ SH091996 -14.6200 149.635 22 -1 -14.6200 149.635 TC 22 3 197
1996021S16152 1996 5 SP EA CELESTE 1996-01-24 00:00:00 TS -14.8000 149.600 main 454 452 O___________O_ jtwc_sh SH091996 -14.8000 149.600 20 -1 -14.8000 149.600 TC 20 4 192
1996021S16152 1996 5 SP EA CELESTE 1996-01-24 03:00:00 TS -14.9850 149.550 main 452 434 P___________P_ SH091996 -14.9850 149.550 20 -1 -14.9850 149.550 TC 20 4 193
1996021S16152 1996 5 SP EA CELESTE 1996-01-24 06:00:00 TS -15.2000 149.500 main 434 414 O___________O_ jtwc_sh SH091996 -15.2000 149.500 20 -1 -15.2000 149.500 TC 20 5 194
1996021S16152 1996 5 SP EA CELESTE 1996-01-24 09:00:00 TS -15.4575 149.435 main 409 399 P___________P_ SH091996 -15.4575 149.435 20 -1 -15.4575 149.435 TC 20 5 191
1996021S16152 1996 5 SP EA CELESTE 1996-01-24 12:00:00 TS -15.7000 149.400 main 399 394 O___________O_ jtwc_sh SH091996 -15.7000 149.400 20 -1 -15.7000 149.400 TC 20 4 0
1996021S16152 1996 5 SP EA CELESTE 1996-01-24 15:00:00 TS -15.8575 149.457 main 399 394 P___________P_ SH091996 -15.8575 149.457 20 -1 -15.8575 149.457 TC 20 3 163
1996021S16152 1996 5 SP EA CELESTE 1996-01-24 18:00:00 TS -16.0000 149.500 main 394 376 O___________O_ jtwc_sh SH091996 -16.0000 149.500 20 -1 -16.0000 149.500 TC 20 4 0
1996021S16152 1996 5 SP EA CELESTE 1996-01-24 21:00:00 TS -16.2075 149.430 main 376 358 P___________P_ SH091996 -16.2075 149.430 20 -1 -16.2075 149.430 TC 20 4 206
1996021S16152 1996 5 SP EA CELESTE 1996-01-25 00:00:00 TS -16.4000 149.300 main 358 344 O___________O_ jtwc_sh SH091996 -16.4000 149.300 20 -1 -16.4000 149.300 TC 20 4 219
1996021S16152 1996 5 SP EA CELESTE 1996-01-25 03:00:00 TS -16.5075 149.172 main 344 321 P___________P_ SH091996 -16.5075 149.172 22 -1 -16.5075 149.172 TC 22 4 235
1996021S16152 1996 5 SP EA CELESTE 1996-01-25 06:00:00 TS -16.6000 149.000 main 321 297 O___________O_ jtwc_sh SH091996 -16.6000 149.000 25 -1 -16.6000 149.000 TC 25 5 238
1996021S16152 1996 5 SP EA CELESTE 1996-01-25 09:00:00 TS -16.7500 148.765 main 294 261 P___________P_ SH091996 -16.7500 148.765 25 -1 -16.7500 148.765 TC 25 6 238
1996021S16152 1996 5 SP EA CELESTE 1996-01-25 12:00:00 TS -16.9000 148.500 main 261 237 O___________O_ jtwc_sh SH091996 -16.9000 148.500 25 -1 -16.9000 148.500 TC 25 6 243
1996021S16152 1996 5 SP EA CELESTE 1996-01-25 15:00:00 TS -17.0000 148.242 main 227 215 P___________P_ SH091996 -17.0000 148.242 25 -1 -17.0000 148.242 TC 25 4 243
1996021S16152 1996 5 SP EA CELESTE 1996-01-25 18:00:00 TS -17.1000 148.089 25 bom main 215 191 O_____O_____O_ jtwc_sh SH091996 -17.1000 148.000 25 -1 -17.1000 148.800 20 25 1.50000 -17.1000 148.000 TC 25 4 226
1996021S16152 1996 5 SP EA CELESTE 1996-01-25 21:00:00 TS -17.2803 147.937 main 191 169 P_____P_____P_ SH091996 -17.2425 147.792 25 -1 -17.4317 148.515 20 25 -17.2425 147.792 TC 25 5 223
1996021S16152 1996 5 SP EA CELESTE 1996-01-26 00:00:00 TS -17.4818 147.709 25 bom main 169 127 O_____O_____O_ jtwc_sh SH091996 -17.4000 147.600 25 -1 -17.7000 148.000 20 25 1.50000 -17.4000 147.600 TC 25 7 238
1996021S16152 1996 5 SP EA CELESTE 1996-01-26 03:00:00 TS -17.6454 147.322 main 127 95 P_____P_____P_ SH091996 -17.5350 147.400 25 -1 -17.8661 147.168 20 25 -17.5350 147.400 TC 25 8 246
1996021S16152 1996 5 SP EA CELESTE 1996-01-26 06:00:00 TS -17.8000 146.967 25 bom main 95 74 O_____O_____O_ jtwc_sh SH091996 -17.7000 147.200 25 -1 -18.0000 146.500 20 25 2.00000 -17.7000 147.200 TC 25 6 235
1996021S16152 1996 5 SP EA CELESTE 1996-01-26 09:00:00 TS -18.0106 146.771 main 77 62 P_____P_____P_ SH091996 -17.9200 146.918 30 -1 -18.1920 146.477 20 27 -17.9200 146.918 TC 30 5 199
1996021S16152 1996 5 SP EA CELESTE 1996-01-26 12:00:00 TS -18.2667 146.800 30 998 bom main 62 62 O_____O_____O_ jtwc_sh SH091996 -18.2000 146.800 35 0 -18.4000 146.800 20 30 998 2.50000 79 -18.2000 146.800 TC 35 6 149
1996021S16152 1996 5 SP EA CELESTE 1996-01-26 15:00:00 TS -18.5493 147.106 main 84 56 P_____P_____P_ SH091996 -18.5351 147.067 40 0 -18.5777 147.185 20 35 996 79 -18.5351 147.067 TC 40 9 131
1996021S16152 1996 5 SP EA CELESTE 1996-01-26 18:00:00 TS -18.8769 147.531 40 995 bom main 56 46 O_____O_O___O_ jtwc_sh SH091996 -18.9000 147.500 45 0 -18.8000 147.600 30 40 995 3.00000 79 -19.0000 147.500 30 997 -18.9000 147.500 TC 45 10 135
1996021S16152 1996 5 SP EA CELESTE 1996-01-26 21:00:00 TS -19.2564 147.852 main 47 39 P_____P_P___P_ SH091996 -19.2950 147.872 55 0 -19.1573 147.858 30 45 990 79 -19.3002 147.762 35 993 -19.2950 147.872 TC 55 9 140
1996021S16152 1996 5 SP EA CELESTE 1996-01-27 00:00:00 TS -19.5533 148.133 50 985 bom main 38 33 O_____O_O___O_ jtwc_sh SH091996 -19.6000 148.200 65 1 -19.5000 148.100 30 50 985 3.50000 79 -19.5000 148.000 40 990 -19.6000 148.200 TC 65 6 131
1996021S16152 1996 5 SP EA CELESTE 1996-01-27 03:00:00 TS -19.6761 148.360 main 35 35 P_____P_P___P_ SH091996 -19.7172 148.393 65 1 -19.7325 148.442 30 57 975 79 -19.5373 148.213 55 977 -19.7172 148.393 TC 65 5 105
1996021S16152 1996 5 SP EA CELESTE 1996-01-27 06:00:00 TS -19.6750 148.625 65 965 bom main 45 45 O_____O_O___O_ jtwc_sh SH091996 -19.7000 148.600 65 1 -19.8000 148.800 40 65 965 4.00000 79 -19.5000 148.500 70 965 -19.7000 148.600 TC 65 6 84
1996021S16152 1996 5 SP EA CELESTE 1996-01-27 09:00:00 TS -19.6125 149.001 main 79 79 P_____P_P___P_ SH091996 -19.6375 148.962 60 0 -19.6374 149.100 40 67 965 79 -19.5377 148.977 70 965 -19.6375 148.962 TC 60 8 75
1996021S16152 1996 5 SP EA CELESTE 1996-01-27 12:00:00 TS -19.4750 149.425 70 965 bom main 109 109 O_____O_O___O_ jtwc_sh SH091996 -19.5000 149.400 55 0 -19.4000 149.400 40 70 965 4.50000 79 -19.5000 149.500 70 965 -19.5000 149.400 TC 55 8 67
1996021S16152 1996 5 SP EA CELESTE 1996-01-27 15:00:00 TS -19.2892 149.824 main 153 153 P_____P_P___P_ SH091996 -19.3074 149.843 55 0 -19.2848 149.712 40 70 967 82 -19.2572 149.900 67 967 -19.3074 149.843 TC 55 9 64
1996021S16152 1996 5 SP EA CELESTE 1996-01-27 18:00:00 TS -19.1000 150.250 70 970 bom main 206 206 O_____O_O___O_ jtwc_sh SH091996 -19.1000 150.300 55 0 -19.2000 150.100 40 70 970 4.50000 85 -19.0000 150.300 65 970 -19.1000 150.300 TC 55 9 69
1996021S16152 1996 5 SP EA CELESTE 1996-01-27 21:00:00 TS -18.9705 150.713 main 246 246 P_____P_P___P_ SH091996 -18.9273 150.735 50 0 -19.1075 150.612 40 65 972 118 -18.9198 150.770 62 972 -18.9273 150.735 TC 50 10 76
1996021S16152 1996 5 SP EA CELESTE 1996-01-28 00:00:00 TS -18.8750 151.225 60 975 bom main 296 296 O_____O_O___O_ jtwc_sh SH091996 -18.8000 151.200 45 0 -19.0000 151.200 30 60 975 4.00000 151 -18.9000 151.300 60 975 -18.8000 151.200 TC 45 10 80
1996021S16152 1996 5 SP EA CELESTE 1996-01-28 03:00:00 TS -18.7962 151.785 main 356 356 P_____P_P___P_ SH091996 -18.7425 151.742 45 0 -18.8574 151.792 30 57 977 151 -18.8422 151.863 57 977 -18.7425 151.742 TC 45 11 82
1996021S16152 1996 5 SP EA CELESTE 1996-01-28 06:00:00 TS -18.7250 152.375 55 980 bom main 417 417 O_____O_O___O_ jtwc_sh SH091996 -18.7000 152.300 45 0 -18.7000 152.400 30 55 980 4.00000 151 -18.8000 152.500 55 980 -18.7000 152.300 TC 45 11 82
1996021S16152 1996 5 SP EA CELESTE 1996-01-28 09:00:00 TS -18.6300 152.974 main 479 479 P_____P_P___P_ SH091996 -18.5998 152.808 45 0 -18.5199 153.015 30 52 982 175 -18.8004 153.265 52 982 -18.5998 152.808 TC 45 11 81
1996021S16152 1996 5 SP EA CELESTE 1996-01-28 12:00:00 TS -18.5500 153.550 50 985 bom main 530 530 O_____O_O___O_ jtwc_sh SH091996 -18.5000 153.300 45 0 -18.4000 153.600 30 50 985 3.50000 199 -18.8000 154.000 50 985 -18.5000 153.300 TC 45 10 84
1996021S16152 1996 5 SP EA CELESTE 1996-01-28 15:00:00 TS -18.5304 154.065 main 561 561 P_____P_P___P_ SH091996 -18.4574 153.807 45 0 -18.4422 154.107 30 50 987 229 -18.7645 154.537 50 985 -18.4574 153.807 TC 45 10 87
1996021S16152 1996 5 SP EA CELESTE 1996-01-28 18:00:00 TS -18.5000 154.550 50 990 bom main 595 595 O_____O_O___O_ jtwc_sh SH091996 -18.4000 154.300 45 0 -18.5000 154.600 30 50 990 3.50000 259 -18.7000 155.000 50 985 -18.4000 154.300 TC 45 9 82
1996021S16152 1996 5 SP EA CELESTE 1996-01-28 21:00:00 TS -18.4049 155.049 main 633 633 P_____P_P___P_ SH091996 -18.2648 154.750 42 0 -18.4603 155.195 30 47 990 290 -18.6299 155.500 45 987 -18.2648 154.750 TC 42 10 75
1996021S16152 1996 5 SP EA CELESTE 1996-01-29 00:00:00 TS -18.2500 155.525 45 990 bom main 686 678 O_____O_O___O_ jtwc_sh SH091996 -18.1000 155.200 40 0 -18.3000 155.700 30 45 990 3.00000 322 -18.5000 156.000 40 990 -18.1000 155.200 TC 40 9 66
1996021S16152 1996 5 SP EA CELESTE 1996-01-29 03:00:00 TS -18.0229 155.939 main 732 732 P_____P_P___P_ SH091996 -17.9499 155.692 40 0 -17.9417 155.870 30 40 992 322 -18.2499 156.500 40 990 -17.9499 155.692 TC 40 9 62
1996021S16152 1996 5 SP EA CELESTE 1996-01-29 06:00:00 TS -17.8133 156.393 35 995 bom main 785 785 O_____O_O___O_ jtwc_sh SH091996 -17.8000 156.200 40 0 -17.6000 156.100 30 35 995 3.00000 322 -18.0000 157.000 40 990 -17.8000 156.200 TC 40 10 71
1996021S16152 1996 5 SP EA CELESTE 1996-01-29 09:00:00 TS -17.7074 156.910 main 801 756 P_____P_P___P_ SH091996 -17.6720 156.662 40 0 -17.4789 156.722 30 32 -17.8924 157.500 40 990 -17.6720 156.662 TC 40 11 78
1996021S16152 1996 5 SP EA CELESTE 1996-01-29 12:00:00 TS -17.5923 157.477 30 bom main 747 700 O_____O_O___O_ jtwc_sh SH091996 -17.5000 157.200 40 0 -17.5000 157.600 20 30 2.50000 -17.8000 158.000 40 990 -17.5000 157.200 TC 40 12 72
1996021S16152 1996 5 SP EA CELESTE 1996-01-29 15:00:00 TS -17.3382 158.099 main 705 654 P_______P___P_ SH091996 -17.1999 157.898 37 0 20 -17.6149 158.500 40 990 -17.1999 157.898 TC 37 14 67
1996021S16152 1996 5 SP EA CELESTE 1996-01-29 18:00:00 TS -17.0667 158.800 main 654 607 O_______O___O_ jtwc_sh SH091996 -16.9000 158.700 35 0 -17.4000 159.000 40 990 -16.9000 158.700 TC 35 15 70
1996021S16152 1996 5 SP EA CELESTE 1996-01-29 21:00:00 TS -16.8500 159.533 main 615 567 P_______P___P_ SH091996 -16.6827 159.565 32 -1 -17.1846 159.470 40 991 -16.6827 159.565 TC 32 14 77
1996021S16152 1996 5 SP MM CELESTE 1996-01-30 00:00:00 TS -16.7333 160.267 main 560 516 O_______O___O_ jtwc_sh SH091996 -16.6000 160.400 30 -1 -17.0000 160.000 40 992 -16.6000 160.400 TC 30 14 85
1996021S16152 1996 5 SP MM CELESTE 1996-01-30 03:00:00 TS -16.7423 160.961 main 510 453 P_______P___P_ SH091996 -16.6821 161.095 27 -1 -16.8628 160.693 37 993 -16.6821 161.095 TC 27 13 96
1996021S16152 1996 5 SP MM CELESTE 1996-01-30 06:00:00 TS -16.8667 161.600 main 453 415 O_______O___O_ jtwc_sh SH091996 -16.9000 161.700 25 -1 -16.8000 161.400 35 995 -16.9000 161.700 TC 25 12 105
1996021S16152 1996 5 SP MM CELESTE 1996-01-30 09:00:00 TS -17.0478 162.138 main 415 370 P_______P___P_ SH091996 -17.1620 162.243 25 -1 -16.8192 161.927 32 996 -17.1620 162.243 TC 25 11 111
1996021S16152 1996 5 SP MM CELESTE 1996-01-30 12:00:00 TS -17.2600 162.680 main 356 324 O_______O___O_ jtwc_sh SH091996 -17.5000 162.800 25 -1 -16.9000 162.500 30 997 -17.5000 162.800 TC 25 12 107
1996021S16152 1996 5 SP MM CELESTE 1996-01-30 15:00:00 TS -17.4142 163.381 main 321 290 P_______P___P_ SH091996 -17.8883 163.464 25 -1 -16.9401 163.298 30 997 -17.8883 163.464 TC 25 15 102
1996021S16152 1996 5 SP MM CELESTE 1996-01-30 18:00:00 TS -17.5800 164.200 main 291 264 O_______O___O_ jtwc_sh SH091996 -18.3000 164.200 25 -1 -17.1000 164.200 30 997 -18.3000 164.200 TC 25 16 92
1996021S16152 1996 5 SP MM CELESTE 1996-01-30 21:00:00 NR -17.4831 165.103 main 264 223 ________P_____ SH091996 -1 -17.4831 165.103 30 997 TC 18 104
1996021S16152 1996 5 SP MM CELESTE 1996-01-31 00:00:00 NR -18.0000 166.000 main 223 ________O_____ -1 -18.0000 166.000 30 997 20 121

デジタル台風データ・検索

IBTrACS Databaseについて

本データベースは、米国NOAAが公開する1842年以降の世界の熱帯低気圧のベストトラックデータアーカイブInternational Best Track Archive for Climate Stewardship (IBTrACS)を、ウェブで閲覧しやすい形式に変換したものです。

最終更新日:2021-12-06